sensor_id;sensor_type;location;lat;lon;timestamp;P1;durP1;ratioP1;P2;durP2;ratioP2
16326;SDS011;34812;49.846;9.610;2023-01-26T00:00:57;23.03;;;19.13;;
16326;SDS011;34812;49.846;9.610;2023-01-26T00:01:58;22.10;;;18.17;;
16326;SDS011;34812;49.846;9.610;2023-01-26T00:02:59;22.40;;;19.17;;
16326;SDS011;34812;49.846;9.610;2023-01-26T00:04:01;21.60;;;18.60;;
16326;SDS011;34812;49.846;9.610;2023-01-26T00:05:03;21.67;;;19.33;;
16326;SDS011;34812;49.846;9.610;2023-01-26T00:06:05;22.27;;;19.77;;
16326;SDS011;34812;49.846;9.610;2023-01-26T00:07:07;22.70;;;17.93;;
16326;SDS011;34812;49.846;9.610;2023-01-26T00:08:09;23.83;;;18.83;;
16326;SDS011;34812;49.846;9.610;2023-01-26T00:09:11;21.27;;;18.57;;
16326;SDS011;34812;49.846;9.610;2023-01-26T00:10:14;21.50;;;17.33;;
16326;SDS011;34812;49.846;9.610;2023-01-26T00:11:16;22.30;;;18.83;;
16326;SDS011;34812;49.846;9.610;2023-01-26T00:12:18;22.00;;;18.73;;
16326;SDS011;34812;49.846;9.610;2023-01-26T00:13:19;21.17;;;18.23;;
16326;SDS011;34812;49.846;9.610;2023-01-26T00:14:21;21.30;;;18.60;;
16326;SDS011;34812;49.846;9.610;2023-01-26T00:15:22;23.60;;;19.17;;
16326;SDS011;34812;49.846;9.610;2023-01-26T00:16:24;23.83;;;18.90;;
16326;SDS011;34812;49.846;9.610;2023-01-26T00:17:25;21.03;;;18.33;;
16326;SDS011;34812;49.846;9.610;2023-01-26T00:18:27;21.83;;;19.00;;
16326;SDS011;34812;49.846;9.610;2023-01-26T00:19:28;23.67;;;19.13;;
16326;SDS011;34812;49.846;9.610;2023-01-26T00:20:31;23.37;;;19.23;;
16326;SDS011;34812;49.846;9.610;2023-01-26T00:21:32;23.83;;;18.90;;
16326;SDS011;34812;49.846;9.610;2023-01-26T00:22:34;22.87;;;19.90;;
16326;SDS011;34812;49.846;9.610;2023-01-26T00:23:34;21.47;;;19.17;;
16326;SDS011;34812;49.846;9.610;2023-01-26T00:24:36;22.70;;;19.17;;
16326;SDS011;34812;49.846;9.610;2023-01-26T00:25:37;22.77;;;18.97;;
16326;SDS011;34812;49.846;9.610;2023-01-26T00:26:40;22.77;;;19.10;;
16326;SDS011;34812;49.846;9.610;2023-01-26T00:27:40;22.50;;;18.47;;
16326;SDS011;34812;49.846;9.610;2023-01-26T00:28:42;21.93;;;18.93;;
16326;SDS011;34812;49.846;9.610;2023-01-26T00:29:43;22.43;;;18.97;;
16326;SDS011;34812;49.846;9.610;2023-01-26T00:30:45;23.37;;;18.70;;
16326;SDS011;34812;49.846;9.610;2023-01-26T00:31:46;24.73;;;20.73;;
16326;SDS011;34812;49.846;9.610;2023-01-26T00:32:48;25.40;;;20.63;;
16326;SDS011;34812;49.846;9.610;2023-01-26T00:33:49;23.10;;;19.30;;
16326;SDS011;34812;49.846;9.610;2023-01-26T00:34:50;23.03;;;20.07;;
16326;SDS011;34812;49.846;9.610;2023-01-26T00:35:55;24.63;;;20.53;;
16326;SDS011;34812;49.846;9.610;2023-01-26T00:36:57;24.43;;;20.67;;
16326;SDS011;34812;49.846;9.610;2023-01-26T00:37:58;23.73;;;18.80;;
16326;SDS011;34812;49.846;9.610;2023-01-26T00:38:59;25.57;;;20.50;;
16326;SDS011;34812;49.846;9.610;2023-01-26T00:40:01;24.93;;;20.40;;
16326;SDS011;34812;49.846;9.610;2023-01-26T00:41:03;25.97;;;21.07;;
16326;SDS011;34812;49.846;9.610;2023-01-26T00:42:04;24.57;;;20.13;;
16326;SDS011;34812;49.846;9.610;2023-01-26T00:43:12;23.97;;;19.40;;
16326;SDS011;34812;49.846;9.610;2023-01-26T00:44:14;24.93;;;19.70;;
16326;SDS011;34812;49.846;9.610;2023-01-26T00:45:15;23.23;;;20.27;;
16326;SDS011;34812;49.846;9.610;2023-01-26T00:46:16;24.10;;;19.53;;
16326;SDS011;34812;49.846;9.610;2023-01-26T00:47:17;23.83;;;19.27;;
16326;SDS011;34812;49.846;9.610;2023-01-26T00:48:19;23.37;;;20.33;;
16326;SDS011;34812;49.846;9.610;2023-01-26T00:49:20;22.77;;;19.33;;
16326;SDS011;34812;49.846;9.610;2023-01-26T00:50:21;22.87;;;19.73;;
16326;SDS011;34812;49.846;9.610;2023-01-26T00:51:23;21.73;;;18.53;;
16326;SDS011;34812;49.846;9.610;2023-01-26T00:52:25;23.73;;;19.37;;
16326;SDS011;34812;49.846;9.610;2023-01-26T00:53:26;23.87;;;18.87;;
16326;SDS011;34812;49.846;9.610;2023-01-26T00:54:27;24.47;;;20.00;;
16326;SDS011;34812;49.846;9.610;2023-01-26T00:55:28;20.80;;;18.60;;
16326;SDS011;34812;49.846;9.610;2023-01-26T00:56:32;22.27;;;17.73;;
16326;SDS011;34812;49.846;9.610;2023-01-26T00:57:32;23.50;;;18.37;;
16326;SDS011;34812;49.846;9.610;2023-01-26T00:58:34;23.37;;;19.53;;
16326;SDS011;34812;49.846;9.610;2023-01-26T00:59:35;22.43;;;18.70;;
16326;SDS011;34812;49.846;9.610;2023-01-26T01:00:37;22.07;;;18.77;;
16326;SDS011;34812;49.846;9.610;2023-01-26T01:01:38;26.07;;;20.87;;
16326;SDS011;34812;49.846;9.610;2023-01-26T01:02:39;22.90;;;19.50;;
16326;SDS011;34812;49.846;9.610;2023-01-26T01:03:40;22.30;;;19.30;;
16326;SDS011;34812;49.846;9.610;2023-01-26T01:04:42;21.53;;;18.93;;
16326;SDS011;34812;49.846;9.610;2023-01-26T01:05:43;22.07;;;18.37;;
16326;SDS011;34812;49.846;9.610;2023-01-26T01:06:45;23.23;;;18.47;;
16326;SDS011;34812;49.846;9.610;2023-01-26T01:07:47;22.03;;;18.63;;
16326;SDS011;34812;49.846;9.610;2023-01-26T01:08:48;23.47;;;19.10;;
16326;SDS011;34812;49.846;9.610;2023-01-26T01:09:49;24.83;;;21.10;;
16326;SDS011;34812;49.846;9.610;2023-01-26T01:10:50;26.27;;;19.97;;
16326;SDS011;34812;49.846;9.610;2023-01-26T01:12:03;28.93;;;20.40;;
16326;SDS011;34812;49.846;9.610;2023-01-26T01:13:04;29.17;;;22.13;;
16326;SDS011;34812;49.846;9.610;2023-01-26T01:14:06;25.97;;;21.23;;
16326;SDS011;34812;49.846;9.610;2023-01-26T01:15:07;25.37;;;19.17;;
16326;SDS011;34812;49.846;9.610;2023-01-26T01:16:09;24.60;;;19.07;;
16326;SDS011;34812;49.846;9.610;2023-01-26T01:17:12;25.40;;;19.43;;
16326;SDS011;34812;49.846;9.610;2023-01-26T01:18:13;23.07;;;19.20;;
16326;SDS011;34812;49.846;9.610;2023-01-26T01:19:15;24.90;;;19.30;;
16326;SDS011;34812;49.846;9.610;2023-01-26T01:20:17;22.30;;;19.23;;
16326;SDS011;34812;49.846;9.610;2023-01-26T01:21:18;22.43;;;18.87;;
16326;SDS011;34812;49.846;9.610;2023-01-26T01:22:22;24.63;;;20.77;;
16326;SDS011;34812;49.846;9.610;2023-01-26T01:23:26;25.03;;;20.07;;
16326;SDS011;34812;49.846;9.610;2023-01-26T01:24:27;22.63;;;19.83;;
16326;SDS011;34812;49.846;9.610;2023-01-26T01:25:29;24.40;;;19.67;;
16326;SDS011;34812;49.846;9.610;2023-01-26T01:26:29;24.90;;;19.87;;
16326;SDS011;34812;49.846;9.610;2023-01-26T01:27:31;21.43;;;18.00;;
16326;SDS011;34812;49.846;9.610;2023-01-26T01:28:32;23.63;;;19.30;;
16326;SDS011;34812;49.846;9.610;2023-01-26T01:29:35;23.53;;;19.43;;
16326;SDS011;34812;49.846;9.610;2023-01-26T01:30:36;23.17;;;18.57;;
16326;SDS011;34812;49.846;9.610;2023-01-26T01:31:38;25.13;;;19.17;;
16326;SDS011;34812;49.846;9.610;2023-01-26T01:32:40;23.17;;;18.47;;
16326;SDS011;34812;49.846;9.610;2023-01-26T01:33:42;23.80;;;18.97;;
16326;SDS011;34812;49.846;9.610;2023-01-26T01:34:45;20.30;;;17.93;;
16326;SDS011;34812;49.846;9.610;2023-01-26T01:35:54;23.10;;;19.03;;
16326;SDS011;34812;49.846;9.610;2023-01-26T01:36:56;24.30;;;19.43;;
16326;SDS011;34812;49.846;9.610;2023-01-26T01:37:59;23.60;;;19.17;;
16326;SDS011;34812;49.846;9.610;2023-01-26T01:39:00;22.67;;;18.80;;
16326;SDS011;34812;49.846;9.610;2023-01-26T01:40:01;23.70;;;19.07;;
16326;SDS011;34812;49.846;9.610;2023-01-26T01:41:02;22.23;;;18.70;;
16326;SDS011;34812;49.846;9.610;2023-01-26T01:42:04;23.80;;;19.93;;
16326;SDS011;34812;49.846;9.610;2023-01-26T01:43:08;21.30;;;18.60;;
16326;SDS011;34812;49.846;9.610;2023-01-26T01:44:11;25.20;;;18.97;;
16326;SDS011;34812;49.846;9.610;2023-01-26T01:45:26;22.90;;;19.43;;
16326;SDS011;34812;49.846;9.610;2023-01-26T01:46:41;23.67;;;18.90;;
16326;SDS011;34812;49.846;9.610;2023-01-26T01:47:46;25.30;;;18.83;;
16326;SDS011;34812;49.846;9.610;2023-01-26T01:48:48;22.83;;;18.03;;
16326;SDS011;34812;49.846;9.610;2023-01-26T01:49:53;23.30;;;18.93;;
16326;SDS011;34812;49.846;9.610;2023-01-26T01:50:55;22.03;;;18.50;;
16326;SDS011;34812;49.846;9.610;2023-01-26T01:52:00;21.53;;;18.60;;
16326;SDS011;34812;49.846;9.610;2023-01-26T01:53:10;24.63;;;19.77;;
16326;SDS011;34812;49.846;9.610;2023-01-26T01:54:16;25.43;;;19.63;;
16326;SDS011;34812;49.846;9.610;2023-01-26T01:55:21;24.40;;;20.10;;
16326;SDS011;34812;49.846;9.610;2023-01-26T01:56:24;23.47;;;19.47;;
16326;SDS011;34812;49.846;9.610;2023-01-26T01:57:30;23.50;;;20.03;;
16326;SDS011;34812;49.846;9.610;2023-01-26T01:58:43;25.00;;;19.10;;
16326;SDS011;34812;49.846;9.610;2023-01-26T01:59:48;24.43;;;19.77;;
16326;SDS011;34812;49.846;9.610;2023-01-26T02:00:54;24.40;;;19.07;;
16326;SDS011;34812;49.846;9.610;2023-01-26T02:01:58;25.03;;;20.33;;
16326;SDS011;34812;49.846;9.610;2023-01-26T02:02:59;22.97;;;18.53;;
16326;SDS011;34812;49.846;9.610;2023-01-26T02:04:15;25.87;;;19.43;;
16326;SDS011;34812;49.846;9.610;2023-01-26T02:05:21;23.40;;;19.33;;
16326;SDS011;34812;49.846;9.610;2023-01-26T02:06:27;24.37;;;20.07;;
16326;SDS011;34812;49.846;9.610;2023-01-26T02:07:30;24.77;;;19.90;;
16326;SDS011;34812;49.846;9.610;2023-01-26T02:08:35;25.63;;;20.27;;
16326;SDS011;34812;49.846;9.610;2023-01-26T02:09:38;22.93;;;18.67;;
16326;SDS011;34812;49.846;9.610;2023-01-26T02:11:00;24.40;;;19.50;;
16326;SDS011;34812;49.846;9.610;2023-01-26T02:12:05;24.47;;;19.00;;
16326;SDS011;34812;49.846;9.610;2023-01-26T02:13:10;22.57;;;18.00;;
16326;SDS011;34812;49.846;9.610;2023-01-26T02:14:13;22.07;;;18.63;;
16326;SDS011;34812;49.846;9.610;2023-01-26T02:15:15;23.67;;;19.20;;
16326;SDS011;34812;49.846;9.610;2023-01-26T02:16:16;25.67;;;19.67;;
16326;SDS011;34812;49.846;9.610;2023-01-26T02:17:19;23.33;;;18.87;;
16326;SDS011;34812;49.846;9.610;2023-01-26T02:18:19;25.23;;;20.17;;
16326;SDS011;34812;49.846;9.610;2023-01-26T02:19:23;24.40;;;18.73;;
16326;SDS011;34812;49.846;9.610;2023-01-26T02:20:33;25.60;;;19.63;;
16326;SDS011;34812;49.846;9.610;2023-01-26T02:21:42;25.37;;;19.80;;
16326;SDS011;34812;49.846;9.610;2023-01-26T02:22:47;24.80;;;20.17;;
16326;SDS011;34812;49.846;9.610;2023-01-26T02:24:00;24.73;;;20.07;;
16326;SDS011;34812;49.846;9.610;2023-01-26T02:25:10;24.13;;;20.70;;
16326;SDS011;34812;49.846;9.610;2023-01-26T02:26:20;21.77;;;18.73;;
16326;SDS011;34812;49.846;9.610;2023-01-26T02:27:23;23.87;;;19.07;;
16326;SDS011;34812;49.846;9.610;2023-01-26T02:28:25;24.77;;;19.43;;
16326;SDS011;34812;49.846;9.610;2023-01-26T02:29:27;25.40;;;19.77;;
16326;SDS011;34812;49.846;9.610;2023-01-26T02:30:29;25.20;;;19.50;;
16326;SDS011;34812;49.846;9.610;2023-01-26T02:31:30;24.20;;;18.80;;
16326;SDS011;34812;49.846;9.610;2023-01-26T02:32:32;25.27;;;20.07;;
16326;SDS011;34812;49.846;9.610;2023-01-26T02:33:33;22.90;;;19.40;;
16326;SDS011;34812;49.846;9.610;2023-01-26T02:34:35;24.87;;;19.97;;
16326;SDS011;34812;49.846;9.610;2023-01-26T02:35:36;24.80;;;21.13;;
16326;SDS011;34812;49.846;9.610;2023-01-26T02:36:37;26.47;;;20.27;;
16326;SDS011;34812;49.846;9.610;2023-01-26T02:37:38;24.90;;;21.53;;
16326;SDS011;34812;49.846;9.610;2023-01-26T02:38:41;27.57;;;21.93;;
16326;SDS011;34812;49.846;9.610;2023-01-26T02:39:44;27.73;;;22.00;;
16326;SDS011;34812;49.846;9.610;2023-01-26T02:40:54;25.40;;;20.20;;
16326;SDS011;34812;49.846;9.610;2023-01-26T02:42:00;24.97;;;19.77;;
16326;SDS011;34812;49.846;9.610;2023-01-26T02:43:19;28.27;;;20.37;;
16326;SDS011;34812;49.846;9.610;2023-01-26T02:44:23;25.07;;;19.53;;
16326;SDS011;34812;49.846;9.610;2023-01-26T02:45:25;28.53;;;21.07;;
16326;SDS011;34812;49.846;9.610;2023-01-26T02:46:27;25.07;;;21.37;;
16326;SDS011;34812;49.846;9.610;2023-01-26T02:47:28;22.80;;;18.93;;
16326;SDS011;34812;49.846;9.610;2023-01-26T02:48:29;25.20;;;19.80;;
16326;SDS011;34812;49.846;9.610;2023-01-26T02:49:48;23.83;;;18.53;;
16326;SDS011;34812;49.846;9.610;2023-01-26T02:50:50;23.73;;;18.93;;
16326;SDS011;34812;49.846;9.610;2023-01-26T02:51:51;24.43;;;19.93;;
16326;SDS011;34812;49.846;9.610;2023-01-26T02:52:52;23.90;;;19.47;;
16326;SDS011;34812;49.846;9.610;2023-01-26T02:53:53;22.33;;;17.80;;
16326;SDS011;34812;49.846;9.610;2023-01-26T02:54:54;23.73;;;18.63;;
16326;SDS011;34812;49.846;9.610;2023-01-26T02:56:14;24.67;;;18.93;;
16326;SDS011;34812;49.846;9.610;2023-01-26T02:57:17;25.83;;;18.97;;
16326;SDS011;34812;49.846;9.610;2023-01-26T02:58:18;23.97;;;18.47;;
16326;SDS011;34812;49.846;9.610;2023-01-26T02:59:19;23.40;;;19.00;;
16326;SDS011;34812;49.846;9.610;2023-01-26T03:00:21;27.53;;;20.03;;
16326;SDS011;34812;49.846;9.610;2023-01-26T03:01:24;23.77;;;18.77;;
16326;SDS011;34812;49.846;9.610;2023-01-26T03:02:24;23.90;;;19.17;;
16326;SDS011;34812;49.846;9.610;2023-01-26T03:03:27;21.57;;;17.30;;
16326;SDS011;34812;49.846;9.610;2023-01-26T03:04:40;19.30;;;16.50;;
16326;SDS011;34812;49.846;9.610;2023-01-26T03:05:42;20.33;;;16.73;;
16326;SDS011;34812;49.846;9.610;2023-01-26T03:06:44;22.37;;;17.63;;
16326;SDS011;34812;49.846;9.610;2023-01-26T03:07:46;19.07;;;16.60;;
16326;SDS011;34812;49.846;9.610;2023-01-26T03:08:46;21.73;;;17.70;;
16326;SDS011;34812;49.846;9.610;2023-01-26T03:09:48;24.20;;;17.70;;
16326;SDS011;34812;49.846;9.610;2023-01-26T03:10:49;20.30;;;16.70;;
16326;SDS011;34812;49.846;9.610;2023-01-26T03:11:50;19.27;;;16.77;;
16326;SDS011;34812;49.846;9.610;2023-01-26T03:12:53;21.80;;;17.50;;
16326;SDS011;34812;49.846;9.610;2023-01-26T03:13:54;21.70;;;17.47;;
16326;SDS011;34812;49.846;9.610;2023-01-26T03:14:55;22.37;;;17.57;;
16326;SDS011;34812;49.846;9.610;2023-01-26T03:16:14;18.50;;;15.93;;
16326;SDS011;34812;49.846;9.610;2023-01-26T03:17:17;21.70;;;18.03;;
16326;SDS011;34812;49.846;9.610;2023-01-26T03:18:18;23.90;;;17.97;;
16326;SDS011;34812;49.846;9.610;2023-01-26T03:19:39;20.03;;;16.80;;
16326;SDS011;34812;49.846;9.610;2023-01-26T03:20:58;22.40;;;17.63;;
16326;SDS011;34812;49.846;9.610;2023-01-26T03:22:19;20.77;;;16.27;;
16326;SDS011;34812;49.846;9.610;2023-01-26T03:23:38;20.03;;;15.87;;
16326;SDS011;34812;49.846;9.610;2023-01-26T03:24:57;20.07;;;17.13;;
16326;SDS011;34812;49.846;9.610;2023-01-26T03:26:12;20.13;;;16.53;;
16326;SDS011;34812;49.846;9.610;2023-01-26T03:27:33;21.90;;;16.27;;
16326;SDS011;34812;49.846;9.610;2023-01-26T03:28:38;19.17;;;15.73;;
16326;SDS011;34812;49.846;9.610;2023-01-26T03:29:39;19.10;;;15.73;;
16326;SDS011;34812;49.846;9.610;2023-01-26T03:30:40;18.57;;;15.83;;
16326;SDS011;34812;49.846;9.610;2023-01-26T03:31:41;22.77;;;17.00;;
16326;SDS011;34812;49.846;9.610;2023-01-26T03:32:43;21.20;;;17.17;;
16326;SDS011;34812;49.846;9.610;2023-01-26T03:33:44;20.53;;;17.10;;
16326;SDS011;34812;49.846;9.610;2023-01-26T03:34:46;20.37;;;16.33;;
16326;SDS011;34812;49.846;9.610;2023-01-26T03:35:46;20.27;;;16.77;;
16326;SDS011;34812;49.846;9.610;2023-01-26T03:36:48;21.70;;;17.10;;
16326;SDS011;34812;49.846;9.610;2023-01-26T03:37:49;21.77;;;16.57;;
16326;SDS011;34812;49.846;9.610;2023-01-26T03:38:53;22.00;;;17.67;;
16326;SDS011;34812;49.846;9.610;2023-01-26T03:39:54;19.40;;;16.30;;
16326;SDS011;34812;49.846;9.610;2023-01-26T03:41:13;21.53;;;16.73;;
16326;SDS011;34812;49.846;9.610;2023-01-26T03:42:33;19.40;;;15.33;;
16326;SDS011;34812;49.846;9.610;2023-01-26T03:43:54;21.80;;;16.67;;
16326;SDS011;34812;49.846;9.610;2023-01-26T03:45:13;19.73;;;15.83;;
16326;SDS011;34812;49.846;9.610;2023-01-26T03:46:32;23.70;;;16.27;;
16326;SDS011;34812;49.846;9.610;2023-01-26T03:47:51;20.90;;;14.20;;
16326;SDS011;34812;49.846;9.610;2023-01-26T03:49:10;18.17;;;12.87;;
16326;SDS011;34812;49.846;9.610;2023-01-26T03:50:29;19.63;;;14.30;;
16326;SDS011;34812;49.846;9.610;2023-01-26T03:51:48;19.53;;;15.07;;
16326;SDS011;34812;49.846;9.610;2023-01-26T03:53:14;22.53;;;16.77;;
16326;SDS011;34812;49.846;9.610;2023-01-26T03:54:34;20.47;;;14.50;;
16326;SDS011;34812;49.846;9.610;2023-01-26T03:55:53;19.40;;;14.83;;
16326;SDS011;34812;49.846;9.610;2023-01-26T03:57:17;18.60;;;13.97;;
16326;SDS011;34812;49.846;9.610;2023-01-26T03:58:17;20.83;;;14.73;;
16326;SDS011;34812;49.846;9.610;2023-01-26T03:59:20;19.70;;;14.50;;
16326;SDS011;34812;49.846;9.610;2023-01-26T04:00:36;16.43;;;12.23;;
16326;SDS011;34812;49.846;9.610;2023-01-26T04:01:39;19.03;;;13.40;;
16326;SDS011;34812;49.846;9.610;2023-01-26T04:03:00;19.87;;;13.70;;
16326;SDS011;34812;49.846;9.610;2023-01-26T04:04:19;18.50;;;12.67;;
16326;SDS011;34812;49.846;9.610;2023-01-26T04:05:39;17.33;;;13.03;;
16326;SDS011;34812;49.846;9.610;2023-01-26T04:06:58;14.00;;;11.73;;
16326;SDS011;34812;49.846;9.610;2023-01-26T04:08:17;15.23;;;11.93;;
16326;SDS011;34812;49.846;9.610;2023-01-26T04:09:22;17.30;;;13.37;;
16326;SDS011;34812;49.846;9.610;2023-01-26T04:10:23;15.20;;;12.10;;
16326;SDS011;34812;49.846;9.610;2023-01-26T04:11:26;15.40;;;11.70;;
16326;SDS011;34812;49.846;9.610;2023-01-26T04:12:26;18.60;;;13.10;;
16326;SDS011;34812;49.846;9.610;2023-01-26T04:13:28;15.97;;;12.20;;
16326;SDS011;34812;49.846;9.610;2023-01-26T04:14:49;19.37;;;13.10;;
16326;SDS011;34812;49.846;9.610;2023-01-26T04:16:08;17.93;;;12.97;;
16326;SDS011;34812;49.846;9.610;2023-01-26T04:17:27;16.30;;;12.17;;
16326;SDS011;34812;49.846;9.610;2023-01-26T04:18:46;15.43;;;12.07;;
16326;SDS011;34812;49.846;9.610;2023-01-26T04:20:06;17.67;;;12.67;;
16326;SDS011;34812;49.846;9.610;2023-01-26T04:21:26;14.40;;;11.53;;
16326;SDS011;34812;49.846;9.610;2023-01-26T04:22:28;17.40;;;12.13;;
16326;SDS011;34812;49.846;9.610;2023-01-26T04:23:29;17.00;;;12.40;;
16326;SDS011;34812;49.846;9.610;2023-01-26T04:24:31;14.60;;;11.57;;
16326;SDS011;34812;49.846;9.610;2023-01-26T04:25:32;15.53;;;11.67;;
16326;SDS011;34812;49.846;9.610;2023-01-26T04:26:35;15.07;;;11.47;;
16326;SDS011;34812;49.846;9.610;2023-01-26T04:27:36;15.80;;;12.23;;
16326;SDS011;34812;49.846;9.610;2023-01-26T04:28:37;13.87;;;11.43;;
16326;SDS011;34812;49.846;9.610;2023-01-26T04:29:38;15.93;;;11.03;;
16326;SDS011;34812;49.846;9.610;2023-01-26T04:30:41;15.73;;;12.57;;
16326;SDS011;34812;49.846;9.610;2023-01-26T04:31:42;16.03;;;12.53;;
16326;SDS011;34812;49.846;9.610;2023-01-26T04:32:44;15.20;;;11.67;;
16326;SDS011;34812;49.846;9.610;2023-01-26T04:33:45;16.23;;;12.13;;
16326;SDS011;34812;49.846;9.610;2023-01-26T04:34:47;17.37;;;12.03;;
16326;SDS011;34812;49.846;9.610;2023-01-26T04:35:48;14.70;;;12.33;;
16326;SDS011;34812;49.846;9.610;2023-01-26T04:36:49;13.87;;;11.27;;
16326;SDS011;34812;49.846;9.610;2023-01-26T04:37:51;13.97;;;12.40;;
16326;SDS011;34812;49.846;9.610;2023-01-26T04:38:52;15.80;;;11.70;;
16326;SDS011;34812;49.846;9.610;2023-01-26T04:39:53;14.17;;;11.40;;
16326;SDS011;34812;49.846;9.610;2023-01-26T04:40:54;13.20;;;10.10;;
16326;SDS011;34812;49.846;9.610;2023-01-26T04:41:56;14.77;;;11.53;;
16326;SDS011;34812;49.846;9.610;2023-01-26T04:42:56;15.53;;;12.77;;
16326;SDS011;34812;49.846;9.610;2023-01-26T04:43:58;16.77;;;11.73;;
16326;SDS011;34812;49.846;9.610;2023-01-26T04:44:59;15.53;;;12.37;;
16326;SDS011;34812;49.846;9.610;2023-01-26T04:46:03;18.23;;;13.73;;
16326;SDS011;34812;49.846;9.610;2023-01-26T04:47:05;14.87;;;11.83;;
16326;SDS011;34812;49.846;9.610;2023-01-26T04:48:06;13.67;;;10.70;;
16326;SDS011;34812;49.846;9.610;2023-01-26T04:49:07;15.33;;;12.03;;
16326;SDS011;34812;49.846;9.610;2023-01-26T04:50:09;13.80;;;10.90;;
16326;SDS011;34812;49.846;9.610;2023-01-26T04:51:10;14.40;;;12.10;;
16326;SDS011;34812;49.846;9.610;2023-01-26T04:52:13;13.63;;;11.17;;
16326;SDS011;34812;49.846;9.610;2023-01-26T04:53:14;15.00;;;12.03;;
16326;SDS011;34812;49.846;9.610;2023-01-26T04:54:16;14.57;;;11.77;;
16326;SDS011;34812;49.846;9.610;2023-01-26T04:55:18;13.80;;;11.20;;
16326;SDS011;34812;49.846;9.610;2023-01-26T04:56:21;15.60;;;11.57;;
16326;SDS011;34812;49.846;9.610;2023-01-26T04:57:24;14.17;;;10.93;;
16326;SDS011;34812;49.846;9.610;2023-01-26T04:58:25;14.90;;;11.20;;
16326;SDS011;34812;49.846;9.610;2023-01-26T04:59:27;14.33;;;10.17;;
16326;SDS011;34812;49.846;9.610;2023-01-26T05:00:27;12.90;;;10.90;;
16326;SDS011;34812;49.846;9.610;2023-01-26T05:01:30;13.93;;;10.87;;
16326;SDS011;34812;49.846;9.610;2023-01-26T05:02:32;12.60;;;10.47;;
16326;SDS011;34812;49.846;9.610;2023-01-26T05:03:33;12.00;;;9.90;;
16326;SDS011;34812;49.846;9.610;2023-01-26T05:04:34;11.50;;;9.63;;
16326;SDS011;34812;49.846;9.610;2023-01-26T05:05:35;11.87;;;10.37;;
16326;SDS011;34812;49.846;9.610;2023-01-26T05:06:38;12.33;;;9.83;;
16326;SDS011;34812;49.846;9.610;2023-01-26T05:07:39;12.20;;;9.20;;
16326;SDS011;34812;49.846;9.610;2023-01-26T05:08:41;12.80;;;9.27;;
16326;SDS011;34812;49.846;9.610;2023-01-26T05:09:42;10.30;;;8.57;;
16326;SDS011;34812;49.846;9.610;2023-01-26T05:10:44;11.83;;;8.77;;
16326;SDS011;34812;49.846;9.610;2023-01-26T05:11:45;11.27;;;10.03;;
16326;SDS011;34812;49.846;9.610;2023-01-26T05:12:47;10.00;;;8.67;;
16326;SDS011;34812;49.846;9.610;2023-01-26T05:13:47;11.00;;;9.70;;
16326;SDS011;34812;49.846;9.610;2023-01-26T05:14:49;12.53;;;9.27;;
16326;SDS011;34812;49.846;9.610;2023-01-26T05:15:50;11.87;;;9.60;;
16326;SDS011;34812;49.846;9.610;2023-01-26T05:16:53;12.53;;;10.57;;
16326;SDS011;34812;49.846;9.610;2023-01-26T05:17:53;10.87;;;9.23;;
16326;SDS011;34812;49.846;9.610;2023-01-26T05:18:57;11.23;;;9.70;;
16326;SDS011;34812;49.846;9.610;2023-01-26T05:19:59;12.60;;;10.43;;
16326;SDS011;34812;49.846;9.610;2023-01-26T05:20:59;11.97;;;9.73;;
16326;SDS011;34812;49.846;9.610;2023-01-26T05:22:01;13.63;;;9.67;;
16326;SDS011;34812;49.846;9.610;2023-01-26T05:23:02;12.50;;;9.20;;
16326;SDS011;34812;49.846;9.610;2023-01-26T05:24:04;13.00;;;9.70;;
16326;SDS011;34812;49.846;9.610;2023-01-26T05:25:07;13.30;;;9.97;;
16326;SDS011;34812;49.846;9.610;2023-01-26T05:26:09;12.00;;;9.50;;
16326;SDS011;34812;49.846;9.610;2023-01-26T05:27:10;12.20;;;9.70;;
16326;SDS011;34812;49.846;9.610;2023-01-26T05:28:21;12.20;;;9.83;;
16326;SDS011;34812;49.846;9.610;2023-01-26T05:29:21;13.30;;;10.43;;
16326;SDS011;34812;49.846;9.610;2023-01-26T05:30:23;11.50;;;9.60;;
16326;SDS011;34812;49.846;9.610;2023-01-26T05:31:24;9.97;;;8.87;;
16326;SDS011;34812;49.846;9.610;2023-01-26T05:32:27;11.73;;;9.70;;
16326;SDS011;34812;49.846;9.610;2023-01-26T05:33:28;12.97;;;10.20;;
16326;SDS011;34812;49.846;9.610;2023-01-26T05:34:30;10.57;;;8.57;;
16326;SDS011;34812;49.846;9.610;2023-01-26T05:35:31;11.60;;;10.10;;
16326;SDS011;34812;49.846;9.610;2023-01-26T05:36:32;12.60;;;10.33;;
16326;SDS011;34812;49.846;9.610;2023-01-26T05:37:33;13.33;;;10.87;;
16326;SDS011;34812;49.846;9.610;2023-01-26T05:38:35;13.27;;;10.87;;
16326;SDS011;34812;49.846;9.610;2023-01-26T05:39:35;13.30;;;11.00;;
16326;SDS011;34812;49.846;9.610;2023-01-26T05:40:37;15.07;;;11.53;;
16326;SDS011;34812;49.846;9.610;2023-01-26T05:41:38;13.30;;;11.03;;
16326;SDS011;34812;49.846;9.610;2023-01-26T05:42:40;13.87;;;9.60;;
16326;SDS011;34812;49.846;9.610;2023-01-26T05:43:42;13.20;;;10.60;;
16326;SDS011;34812;49.846;9.610;2023-01-26T05:44:44;10.33;;;9.13;;
16326;SDS011;34812;49.846;9.610;2023-01-26T05:45:45;13.60;;;9.90;;
16326;SDS011;34812;49.846;9.610;2023-01-26T05:46:46;12.70;;;10.23;;
16326;SDS011;34812;49.846;9.610;2023-01-26T05:47:48;12.70;;;10.13;;
16326;SDS011;34812;49.846;9.610;2023-01-26T05:48:50;10.90;;;9.27;;
16326;SDS011;34812;49.846;9.610;2023-01-26T05:49:52;11.60;;;9.73;;
16326;SDS011;34812;49.846;9.610;2023-01-26T05:50:54;13.37;;;10.50;;
16326;SDS011;34812;49.846;9.610;2023-01-26T05:51:56;13.70;;;10.43;;
16326;SDS011;34812;49.846;9.610;2023-01-26T05:52:58;12.27;;;10.23;;
16326;SDS011;34812;49.846;9.610;2023-01-26T05:53:59;12.87;;;10.07;;
16326;SDS011;34812;49.846;9.610;2023-01-26T05:55:01;11.90;;;9.40;;
16326;SDS011;34812;49.846;9.610;2023-01-26T05:56:02;11.97;;;8.90;;
16326;SDS011;34812;49.846;9.610;2023-01-26T05:57:04;10.30;;;9.00;;
16326;SDS011;34812;49.846;9.610;2023-01-26T05:58:04;12.17;;;9.87;;
16326;SDS011;34812;49.846;9.610;2023-01-26T05:59:06;12.47;;;9.73;;
16326;SDS011;34812;49.846;9.610;2023-01-26T06:00:08;14.00;;;10.53;;
16326;SDS011;34812;49.846;9.610;2023-01-26T06:01:11;10.47;;;8.47;;
16326;SDS011;34812;49.846;9.610;2023-01-26T06:02:13;12.23;;;9.63;;
16326;SDS011;34812;49.846;9.610;2023-01-26T06:03:15;13.40;;;10.83;;
16326;SDS011;34812;49.846;9.610;2023-01-26T06:04:17;13.13;;;11.07;;
16326;SDS011;34812;49.846;9.610;2023-01-26T06:05:17;15.40;;;10.33;;
16326;SDS011;34812;49.846;9.610;2023-01-26T06:06:19;13.83;;;10.13;;
16326;SDS011;34812;49.846;9.610;2023-01-26T06:07:20;15.90;;;11.53;;
16326;SDS011;34812;49.846;9.610;2023-01-26T06:08:21;13.87;;;11.53;;
16326;SDS011;34812;49.846;9.610;2023-01-26T06:09:22;14.20;;;10.97;;
16326;SDS011;34812;49.846;9.610;2023-01-26T06:10:24;14.63;;;10.17;;
16326;SDS011;34812;49.846;9.610;2023-01-26T06:11:25;12.40;;;10.03;;
16326;SDS011;34812;49.846;9.610;2023-01-26T06:12:27;13.80;;;10.53;;
16326;SDS011;34812;49.846;9.610;2023-01-26T06:13:30;10.90;;;8.93;;
16326;SDS011;34812;49.846;9.610;2023-01-26T06:14:32;12.10;;;9.93;;
16326;SDS011;34812;49.846;9.610;2023-01-26T06:15:32;12.53;;;11.00;;
16326;SDS011;34812;49.846;9.610;2023-01-26T06:16:34;12.40;;;10.53;;